createdAt,value
2022-09-23T00:08:04.214Z,25.486
2022-09-23T00:23:06.049Z,25.442
2022-09-23T00:38:07.906Z,25.875
2022-09-23T00:53:09.746Z,26.588
2022-09-23T01:08:11.582Z,26.374
2022-09-23T01:23:13.437Z,25.285
2022-09-23T01:38:15.265Z,25.569
2022-09-23T01:53:17.712Z,25.518
2022-09-23T02:08:19.574Z,25.875
2022-09-23T02:23:21.405Z,26.003
2022-09-23T02:38:23.281Z,26.131
2022-09-23T02:53:25.144Z,25.983
2022-09-23T03:08:26.999Z,26.181
2022-09-23T03:23:28.818Z,26.28
2022-09-23T03:38:30.667Z,26.157
2022-09-23T03:53:32.539Z,26.043
2022-09-23T04:08:34.365Z,26.428
2022-09-23T04:23:36.210Z,26.042
2022-09-23T04:38:38.045Z,26.235
2022-09-23T04:53:39.828Z,26.283
2022-09-23T05:08:41.714Z,26.598
2022-09-23T05:23:43.547Z,27.479
2022-09-23T05:38:45.363Z,27.934
2022-09-23T05:53:47.210Z,28.473
2022-09-23T06:08:49.055Z,28.258
2022-09-23T06:23:53.803Z,28.235
2022-09-23T06:38:57.718Z,28.856
2022-09-23T06:53:59.661Z,28.651
2022-09-23T07:09:01.462Z,28.333
2022-09-23T07:24:03.299Z,28.675
2022-09-23T07:39:05.185Z,28.562
2022-09-23T07:54:07.053Z,28.53
2022-09-23T08:09:08.882Z,29.169
2022-09-23T08:24:10.692Z,28.047
2022-09-23T08:39:12.561Z,28.537
2022-09-23T08:54:14.429Z,28.327
2022-09-23T09:09:16.272Z,28.236
2022-09-23T09:24:18.119Z,28.321
2022-09-23T09:39:24.078Z,28.755
2022-09-23T09:54:27.827Z,29.403
2022-09-23T10:09:29.659Z,29.982
2022-09-23T10:24:31.484Z,27.678
2022-09-23T10:39:33.282Z,27.848
2022-09-23T10:54:35.129Z,28.068
2022-09-23T11:09:36.990Z,28.442
2022-09-23T11:24:38.807Z,28.543
2022-09-23T11:39:40.652Z,28.748
2022-09-23T11:54:42.462Z,29.439
2022-09-23T12:09:57.288Z,29.702
2022-09-23T12:24:59.876Z,29.646
2022-09-23T12:40:01.709Z,29.692
2022-09-23T12:55:03.529Z,30.493
2022-09-23T13:10:05.336Z,30.144
2022-09-23T13:25:07.174Z,30.533
2022-09-23T13:40:09.133Z,30.136
2022-09-23T13:55:11.034Z,30.401
2022-09-23T14:10:12.875Z,30.301
2022-09-23T14:25:14.720Z,30.767
2022-09-23T14:40:16.661Z,30.299
2022-09-23T14:55:18.587Z,30.363
2022-09-23T15:10:20.539Z,30.492
2022-09-23T15:25:22.362Z,30.206
2022-09-23T15:40:24.277Z,30.468
2022-09-23T15:55:26.196Z,30.144
2022-09-23T16:10:28.016Z,29.006
2022-09-23T16:25:29.868Z,28.835
2022-09-23T16:40:31.821Z,28.607
2022-09-23T16:55:33.691Z,28.551
2022-09-23T17:10:35.536Z,28.373
2022-09-23T17:25:37.371Z,28.292
2022-09-23T17:40:39.301Z,28.362
2022-09-23T17:55:41.156Z,27.739
2022-09-23T18:10:43.004Z,27.32
2022-09-23T18:25:44.810Z,26.805
2022-09-23T18:40:46.657Z,26.922
2022-09-23T18:55:48.605Z,26.624
2022-09-23T19:10:50.418Z,26.531
2022-09-23T19:25:52.258Z,27.511
2022-09-23T19:40:54.143Z,27.788
2022-09-23T19:55:55.988Z,27.641
2022-09-23T20:10:57.797Z,26.768
2022-09-23T20:25:59.645Z,26.463
2022-09-23T20:41:01.490Z,25.491
2022-09-23T20:56:03.310Z,25.655
2022-09-23T21:11:05.141Z,24.919
2022-09-23T21:26:06.952Z,25.733
2022-09-23T21:41:08.778Z,25.41
2022-09-23T21:56:10.620Z,25.753
2022-09-23T22:11:12.464Z,25.798
2022-09-23T22:26:14.291Z,25.62
2022-09-23T22:41:16.120Z,25.913
2022-09-23T22:56:17.949Z,25.809
2022-09-23T23:11:19.805Z,26.009
2022-09-23T23:26:21.630Z,26.041
2022-09-23T23:41:23.444Z,25.882
2022-09-23T23:56:25.309Z,25.898
